createdAt,value
2022-08-17T00:00:34.379Z,20.30
2022-08-17T00:03:13.625Z,20.20
2022-08-17T00:05:46.136Z,20.30
2022-08-17T00:08:16.897Z,20.30
2022-08-17T00:10:46.810Z,20.20
2022-08-17T00:13:20.339Z,20.20
2022-08-17T00:15:48.621Z,20.20
2022-08-17T00:19:06.026Z,20.30
2022-08-17T00:21:10.227Z,20.30
2022-08-17T00:23:44.466Z,20.20
2022-08-17T00:26:38.794Z,20.40
2022-08-17T00:29:08.547Z,20.30
2022-08-17T00:31:37.991Z,20.20
2022-08-17T00:34:08.705Z,20.10
2022-08-17T00:36:37.430Z,20.00
2022-08-17T00:39:06.128Z,19.90
2022-08-17T00:41:35.706Z,19.90
2022-08-17T00:44:05.853Z,19.90
2022-08-17T00:46:40.314Z,19.80
2022-08-17T00:49:10.983Z,19.90
2022-08-17T00:51:45.269Z,20.00
2022-08-17T00:54:18.458Z,19.90
2022-08-17T00:56:51.153Z,19.90
2022-08-17T00:59:24.424Z,19.90
2022-08-17T01:01:54.054Z,19.90
2022-08-17T01:04:23.629Z,20.00
2022-08-17T01:06:54.274Z,20.10
2022-08-17T01:09:22.574Z,20.00
2022-08-17T01:11:52.257Z,20.00
2022-08-17T01:14:21.455Z,20.10
2022-08-17T01:16:54.893Z,20.00
2022-08-17T01:19:27.302Z,20.10
2022-08-17T01:22:04.156Z,20.20
2022-08-17T01:24:35.136Z,20.20
2022-08-17T01:27:10.346Z,20.10
2022-08-17T01:29:43.606Z,20.10
2022-08-17T01:32:12.018Z,19.90
2022-08-17T01:34:43.510Z,19.90
2022-08-17T01:37:19.477Z,19.80
2022-08-17T01:39:52.913Z,19.80
2022-08-17T01:42:29.634Z,19.90
2022-08-17T01:45:06.406Z,19.80
2022-08-17T01:47:35.399Z,19.80
2022-08-17T01:50:11.714Z,19.80
2022-08-17T01:52:40.470Z,19.80
2022-08-17T01:55:11.513Z,19.80
2022-08-17T01:57:39.587Z,19.80
2022-08-17T02:00:10.707Z,19.80
2022-08-17T02:02:39.072Z,19.80
2022-08-17T02:05:09.069Z,19.80
2022-08-17T02:07:59.442Z,19.80
2022-08-17T02:10:33.901Z,19.80
2022-08-17T02:13:02.995Z,19.80
2022-08-17T02:15:31.925Z,19.80
2022-08-17T02:18:00.681Z,19.90
2022-08-17T02:20:41.585Z,19.90
2022-08-17T02:23:13.377Z,20.00
2022-08-17T02:25:44.904Z,20.00
2022-08-17T02:28:13.057Z,19.90
2022-08-17T02:30:59.513Z,19.90
2022-08-17T02:33:41.922Z,19.80
2022-08-17T02:36:12.928Z,19.80
2022-08-17T02:38:42.926Z,19.70
2022-08-17T02:41:12.961Z,19.70
2022-08-17T02:43:44.013Z,19.70
2022-08-17T02:46:12.689Z,19.80
2022-08-17T02:48:43.775Z,19.90
2022-08-17T02:51:11.817Z,19.80
2022-08-17T02:53:40.068Z,19.80
2022-08-17T02:56:08.433Z,19.70
2022-08-17T02:58:37.896Z,19.80
2022-08-17T03:01:08.402Z,19.70
2022-08-17T03:03:37.672Z,19.70
2022-08-17T03:06:07.724Z,19.80
2022-08-17T03:08:37.381Z,19.90
2022-08-17T03:11:05.731Z,19.80
2022-08-17T03:13:34.026Z,19.80
2022-08-17T03:16:03.475Z,19.90
2022-08-17T03:18:31.588Z,19.90
2022-08-17T03:21:04.162Z,19.80
2022-08-17T03:23:33.695Z,19.80
2022-08-17T03:26:01.935Z,19.80
2022-08-17T03:28:30.515Z,19.80
2022-08-17T03:30:58.581Z,19.90
2022-08-17T03:33:27.998Z,19.70
2022-08-17T03:35:56.151Z,19.60
2022-08-17T03:38:24.671Z,19.50
2022-08-17T03:40:59.531Z,19.60
2022-08-17T03:43:31.036Z,19.70
2022-08-17T03:46:27.076Z,19.60
2022-08-17T03:49:16.322Z,19.60
2022-08-17T03:52:01.997Z,19.50
2022-08-17T03:54:47.431Z,19.50
2022-08-17T03:57:16.275Z,19.60
2022-08-17T03:59:46.014Z,19.60
2022-08-17T04:02:18.982Z,19.50
2022-08-17T04:04:50.704Z,19.60
2022-08-17T04:07:19.587Z,19.60
2022-08-17T04:09:47.705Z,19.60
2022-08-17T04:12:16.904Z,19.60
2022-08-17T04:14:52.793Z,19.50
2022-08-17T04:17:24.675Z,19.60
2022-08-17T04:19:57.639Z,19.70
2022-08-17T04:22:31.377Z,19.60
2022-08-17T04:25:05.374Z,19.70
2022-08-17T04:27:36.441Z,19.70
2022-08-17T04:30:06.991Z,19.60
2022-08-17T04:33:00.439Z,19.60
2022-08-17T04:35:39.610Z,19.70
2022-08-17T04:38:10.678Z,19.80
2022-08-17T04:40:56.467Z,19.80
2022-08-17T04:43:27.173Z,19.80
2022-08-17T04:45:58.355Z,19.80
2022-08-17T04:48:36.584Z,19.70
2022-08-17T04:51:11.341Z,19.70
2022-08-17T04:53:42.209Z,19.60
2022-08-17T04:56:16.140Z,19.70
2022-08-17T04:58:45.450Z,19.80
2022-08-17T05:01:16.173Z,19.90
2022-08-17T05:03:47.123Z,20.00
2022-08-17T05:06:16.616Z,20.10
2022-08-17T05:08:44.690Z,20.20
2022-08-17T05:11:16.039Z,20.10
2022-08-17T05:13:44.699Z,20.20
2022-08-17T05:16:15.579Z,20.30
2022-08-17T05:18:43.786Z,20.10
2022-08-17T05:21:11.928Z,20.10
2022-08-17T05:23:43.481Z,20.30
2022-08-17T05:26:25.432Z,20.30
2022-08-17T05:28:56.962Z,20.30
2022-08-17T05:31:25.268Z,20.30
2022-08-17T05:33:53.927Z,20.50
2022-08-17T05:36:43.022Z,20.60
2022-08-17T05:39:18.323Z,20.60
2022-08-17T05:41:48.560Z,20.70
2022-08-17T05:44:17.726Z,20.80
2022-08-17T05:46:51.355Z,20.90
2022-08-17T05:49:28.110Z,21.00
2022-08-17T05:52:12.150Z,21.10
2022-08-17T05:54:55.941Z,21.10
2022-08-17T05:57:56.076Z,21.20
2022-08-17T06:00:30.516Z,21.30
2022-08-17T06:03:20.376Z,21.40
2022-08-17T06:06:04.533Z,21.50
2022-08-17T06:08:40.553Z,21.50
2022-08-17T06:11:20.572Z,21.60
2022-08-17T06:14:39.564Z,21.70
2022-08-17T06:17:12.179Z,21.80
2022-08-17T06:19:43.719Z,21.80
2022-08-17T06:22:17.517Z,21.80
2022-08-17T06:24:51.356Z,22.20
2022-08-17T06:27:27.499Z,22.30
2022-08-17T06:30:02.099Z,22.50
2022-08-17T06:32:31.185Z,22.50
2022-08-17T06:35:01.741Z,22.60
2022-08-17T06:37:49.573Z,22.60
2022-08-17T06:40:45.659Z,22.90
2022-08-17T06:43:39.308Z,23.00
2022-08-17T06:46:12.489Z,23.00
2022-08-17T06:48:50.033Z,23.00
2022-08-17T06:51:26.240Z,22.80
2022-08-17T06:54:05.264Z,22.70
2022-08-17T06:56:54.669Z,22.70
2022-08-17T06:59:53.210Z,22.70
2022-08-17T07:02:51.280Z,22.70
2022-08-17T07:05:24.233Z,22.70
2022-08-17T07:08:04.210Z,22.70
2022-08-17T07:10:43.684Z,22.80
2022-08-17T07:13:29.370Z,22.70
2022-08-17T07:16:12.479Z,22.60
2022-08-17T07:18:40.587Z,22.70
2022-08-17T07:21:26.554Z,22.80
2022-08-17T07:24:11.304Z,22.70
2022-08-17T07:27:14.302Z,22.80
2022-08-17T07:29:49.401Z,22.80
2022-08-17T07:32:24.582Z,22.80
2022-08-17T07:35:15.866Z,22.90
2022-08-17T07:37:50.923Z,23.10
2022-08-17T07:40:34.483Z,23.10
2022-08-17T07:43:07.576Z,23.10
2022-08-17T07:46:19.413Z,23.20
2022-08-17T07:48:52.922Z,23.20
2022-08-17T07:51:29.225Z,23.20
2022-08-17T07:54:13.703Z,23.20
2022-08-17T07:56:48.408Z,23.10
2022-08-17T07:59:23.219Z,23.00
2022-08-17T08:02:08.086Z,23.00
2022-08-17T08:04:59.684Z,23.00
2022-08-17T08:07:37.045Z,23.00
2022-08-17T08:10:13.739Z,22.90
2022-08-17T08:12:43.774Z,22.70
2022-08-17T08:15:21.738Z,22.70
2022-08-17T08:17:58.585Z,22.70
2022-08-17T08:20:52.089Z,22.70
2022-08-17T08:23:40.307Z,22.90
2022-08-17T08:26:22.141Z,23.00
2022-08-17T08:29:05.124Z,22.80
2022-08-17T08:31:51.693Z,22.80
2022-08-17T08:34:53.495Z,22.90
2022-08-17T08:37:36.852Z,22.80
2022-08-17T08:40:28.301Z,22.90
2022-08-17T08:43:12.589Z,22.90
2022-08-17T08:45:51.231Z,23.00
2022-08-17T08:48:56.773Z,23.10
2022-08-17T08:51:42.874Z,23.10
2022-08-17T08:54:35.518Z,23.20
2022-08-17T08:57:29.191Z,23.30
2022-08-17T09:00:12.759Z,23.40
2022-08-17T09:03:52.353Z,23.40
2022-08-17T09:06:44.303Z,23.40
2022-08-17T09:09:31.240Z,23.40
2022-08-17T09:12:07.587Z,23.50
2022-08-17T09:14:47.181Z,23.50
2022-08-17T09:17:23.093Z,23.50
2022-08-17T09:19:57.595Z,23.60
2022-08-17T09:22:33.613Z,23.70
2022-08-17T09:25:11.368Z,23.80
2022-08-17T09:27:52.039Z,23.90
2022-08-17T09:30:21.907Z,24.00
2022-08-17T09:32:58.743Z,24.20
2022-08-17T09:35:36.968Z,24.40
2022-08-17T09:38:19.267Z,24.60
2022-08-17T09:40:54.796Z,25.00
2022-08-17T09:43:33.367Z,25.10
2022-08-17T09:46:05.626Z,25.20
2022-08-17T09:48:38.896Z,25.30
2022-08-17T09:51:13.920Z,25.40
2022-08-17T09:53:44.674Z,25.50
2022-08-17T09:56:36.403Z,25.30
2022-08-17T09:59:21.925Z,25.30
2022-08-17T10:01:59.691Z,25.00
2022-08-17T10:04:42.291Z,24.90
2022-08-17T10:07:17.044Z,24.90
2022-08-17T10:09:58.483Z,24.80
2022-08-17T10:12:46.499Z,24.70
2022-08-17T10:15:30.859Z,24.70
2022-08-17T10:18:33.183Z,24.80
2022-08-17T10:21:23.721Z,24.80
2022-08-17T10:24:18.634Z,24.80
2022-08-17T10:26:57.182Z,24.80
2022-08-17T10:29:47.357Z,25.00
2022-08-17T10:32:32.315Z,24.90
2022-08-17T10:35:30.278Z,25.00
2022-08-17T10:38:46.472Z,25.10
2022-08-17T10:41:25.629Z,25.20
2022-08-17T10:44:38.454Z,25.20
2022-08-17T10:47:07.024Z,25.10
2022-08-17T10:49:36.642Z,25.20
2022-08-17T10:52:52.193Z,25.20
2022-08-17T10:55:22.068Z,25.20
2022-08-17T10:57:54.756Z,25.20
2022-08-17T11:01:11.418Z,25.10
2022-08-17T11:03:53.387Z,24.80
2022-08-17T11:06:30.537Z,25.10
2022-08-17T11:09:27.855Z,25.40
2022-08-17T11:12:22.371Z,26.00
2022-08-17T11:15:22.187Z,26.50
2022-08-17T11:18:28.036Z,26.90
2022-08-17T11:21:32.722Z,27.50
2022-08-17T11:24:18.996Z,27.40
2022-08-17T11:27:07.522Z,27.20
2022-08-17T11:29:51.980Z,26.90
2022-08-17T11:32:47.049Z,26.70
2022-08-17T11:35:34.652Z,26.80
2022-08-17T11:38:17.633Z,26.80
2022-08-17T11:41:13.779Z,26.60
2022-08-17T11:44:24.768Z,26.80
2022-08-17T11:47:28.952Z,26.80
2022-08-17T11:50:56.419Z,26.80
2022-08-17T11:56:59.977Z,27.00
2022-08-17T11:59:59.959Z,26.90
2022-08-17T12:02:48.220Z,26.80
2022-08-17T12:05:35.212Z,26.70
2022-08-17T12:08:22.111Z,26.60
2022-08-17T12:10:59.626Z,26.60
2022-08-17T12:13:30.511Z,26.60
2022-08-17T12:16:09.837Z,26.60
2022-08-17T12:18:39.732Z,26.80
2022-08-17T12:21:22.142Z,26.70
2022-08-17T12:23:58.791Z,26.60
2022-08-17T12:26:31.882Z,26.60
2022-08-17T12:29:04.526Z,26.60
2022-08-17T12:31:43.579Z,26.60
2022-08-17T12:34:18.938Z,26.50
2022-08-17T12:36:50.227Z,26.50
2022-08-17T12:39:22.665Z,26.60
2022-08-17T12:42:01.990Z,26.50
2022-08-17T12:44:33.284Z,26.70
2022-08-17T12:47:19.372Z,26.80
2022-08-17T12:49:52.185Z,26.80
2022-08-17T12:52:24.605Z,27.10
2022-08-17T12:55:00.472Z,27.20
2022-08-17T12:57:33.637Z,27.30
2022-08-17T13:00:12.367Z,27.30
2022-08-17T13:02:46.538Z,27.30
2022-08-17T13:05:24.023Z,27.20
2022-08-17T13:07:57.830Z,27.00
2022-08-17T13:10:33.144Z,27.10
2022-08-17T13:13:05.277Z,27.20
2022-08-17T13:15:44.646Z,27.30
2022-08-17T13:18:40.050Z,27.30
2022-08-17T13:21:22.144Z,27.20
2022-08-17T13:24:02.472Z,27.30
2022-08-17T13:26:34.589Z,27.30
2022-08-17T13:29:06.771Z,27.30
2022-08-17T13:31:51.993Z,27.40
2022-08-17T13:35:03.738Z,27.40
2022-08-17T13:37:33.603Z,27.60
2022-08-17T13:40:20.762Z,27.80
2022-08-17T13:42:53.965Z,27.80
2022-08-17T13:45:50.874Z,27.80
2022-08-17T13:48:31.942Z,27.90
2022-08-17T13:51:34.384Z,27.90
2022-08-17T13:54:16.581Z,27.80
2022-08-17T13:56:57.554Z,27.70
2022-08-17T13:59:54.636Z,27.80
2022-08-17T14:02:28.378Z,27.80
2022-08-17T14:05:00.416Z,27.90
2022-08-17T14:07:34.649Z,27.80
2022-08-17T14:10:08.613Z,27.80
2022-08-17T14:12:39.734Z,27.90
2022-08-17T14:15:10.198Z,28.00
2022-08-17T14:17:39.358Z,28.00
2022-08-17T14:20:12.289Z,28.20
2022-08-17T14:22:46.321Z,28.10
2022-08-17T14:25:17.487Z,27.90
2022-08-17T14:27:52.808Z,27.90
2022-08-17T14:30:29.994Z,27.90
2022-08-17T14:32:59.543Z,27.90
2022-08-17T14:35:29.312Z,27.90
2022-08-17T14:37:58.973Z,27.90
2022-08-17T14:40:28.048Z,27.90
2022-08-17T14:42:57.778Z,27.80
2022-08-17T14:45:30.450Z,27.90
2022-08-17T14:48:01.655Z,27.90
2022-08-17T14:50:29.718Z,27.90
2022-08-17T14:53:04.359Z,27.90
2022-08-17T14:55:33.116Z,27.90
2022-08-17T14:58:01.318Z,28.00
2022-08-17T15:00:29.441Z,28.00
2022-08-17T15:03:00.813Z,27.90
2022-08-17T15:05:33.419Z,28.00
2022-08-17T15:08:05.456Z,27.90
2022-08-17T15:10:34.498Z,28.00
2022-08-17T15:13:02.709Z,28.00
2022-08-17T15:15:31.943Z,28.00
2022-08-17T15:18:01.020Z,27.90
2022-08-17T15:20:30.629Z,28.10
2022-08-17T15:23:02.243Z,28.00
2022-08-17T15:25:32.911Z,28.00
2022-08-17T15:28:02.168Z,28.00
2022-08-17T15:30:31.359Z,28.00
2022-08-17T15:33:00.970Z,27.90
2022-08-17T15:35:32.644Z,28.00
2022-08-17T15:38:10.775Z,28.00
2022-08-17T15:40:43.571Z,28.10
2022-08-17T15:43:16.382Z,28.00
2022-08-17T15:45:44.963Z,28.00
2022-08-17T15:48:40.546Z,28.00
2022-08-17T15:51:11.118Z,28.00
2022-08-17T15:53:42.306Z,27.90
2022-08-17T15:56:11.275Z,27.90
2022-08-17T15:58:42.143Z,28.00
2022-08-17T16:01:14.713Z,27.90
2022-08-17T16:04:04.704Z,27.90
2022-08-17T16:06:35.823Z,27.90
2022-08-17T16:09:05.542Z,27.90
2022-08-17T16:11:33.609Z,27.90
2022-08-17T16:14:01.752Z,27.90
2022-08-17T16:16:31.315Z,28.00
2022-08-17T16:18:59.504Z,27.90
2022-08-17T16:21:29.636Z,27.90
2022-08-17T16:24:02.882Z,27.90
2022-08-17T16:26:34.053Z,28.00
2022-08-17T16:29:06.565Z,28.00
2022-08-17T16:31:35.925Z,28.00
2022-08-17T16:34:16.195Z,28.00
2022-08-17T16:36:51.836Z,28.10
2022-08-17T16:39:24.890Z,28.00
2022-08-17T16:41:54.454Z,28.10
2022-08-17T16:44:23.365Z,28.10
2022-08-17T16:46:51.530Z,28.10
2022-08-17T16:49:35.244Z,28.10
2022-08-17T16:52:09.662Z,28.20
2022-08-17T16:54:43.303Z,28.00
2022-08-17T16:57:14.068Z,27.90
2022-08-17T16:59:47.832Z,27.90
2022-08-17T17:02:17.390Z,27.80
2022-08-17T17:04:54.001Z,27.80
2022-08-17T17:07:48.523Z,27.80
2022-08-17T17:10:20.152Z,27.80
2022-08-17T17:12:59.564Z,27.80
2022-08-17T17:15:54.915Z,27.70
2022-08-17T17:18:33.361Z,27.80
2022-08-17T17:21:02.162Z,27.70
2022-08-17T17:23:44.027Z,27.60
2022-08-17T17:26:35.143Z,27.60
2022-08-17T17:29:23.623Z,27.70
2022-08-17T17:32:05.469Z,27.60
2022-08-17T17:34:35.579Z,27.60
2022-08-17T17:37:12.099Z,27.60
2022-08-17T17:39:48.991Z,27.60
2022-08-17T17:42:22.380Z,27.60
2022-08-17T17:45:02.225Z,27.70
2022-08-17T17:47:31.143Z,27.70
2022-08-17T17:50:02.590Z,27.60
2022-08-17T17:52:40.978Z,27.70
2022-08-17T17:55:27.401Z,27.60
2022-08-17T17:58:08.046Z,27.60
2022-08-17T18:00:43.187Z,27.60
2022-08-17T18:03:40.680Z,27.50
2022-08-17T18:06:23.937Z,27.50
2022-08-17T18:09:04.706Z,27.60
2022-08-17T18:12:09.439Z,27.50
2022-08-17T18:15:01.560Z,27.50
2022-08-17T18:17:31.140Z,27.30
2022-08-17T18:19:59.958Z,27.30
2022-08-17T18:22:29.046Z,27.20
2022-08-17T18:24:57.787Z,27.20
2022-08-17T18:27:32.580Z,27.10
2022-08-17T18:30:08.639Z,26.80
2022-08-17T18:32:42.019Z,26.60
2022-08-17T18:35:35.099Z,26.40
2022-08-17T18:38:21.663Z,26.10
2022-08-17T18:41:06.314Z,25.90
2022-08-17T18:43:53.011Z,25.70
2022-08-17T18:46:33.600Z,25.60
2022-08-17T18:49:07.443Z,25.60
2022-08-17T18:51:42.728Z,25.20
2022-08-17T18:54:23.750Z,25.30
2022-08-17T18:56:57.365Z,25.40
2022-08-17T18:59:36.701Z,25.50
2022-08-17T19:02:36.084Z,25.40
2022-08-17T19:05:29.424Z,25.20
2022-08-17T19:08:21.456Z,25.00
2022-08-17T19:10:56.367Z,25.00
2022-08-17T19:13:33.997Z,24.90
2022-08-17T19:16:15.153Z,25.00
2022-08-17T19:18:52.424Z,24.90
2022-08-17T19:21:29.275Z,24.90
2022-08-17T19:24:07.132Z,24.90
2022-08-17T19:26:51.226Z,24.90
2022-08-17T19:29:34.221Z,24.70
2022-08-17T19:32:02.868Z,24.60
2022-08-17T19:34:34.756Z,24.50
2022-08-17T19:37:22.522Z,24.40
2022-08-17T19:40:05.309Z,24.30
2022-08-17T19:42:47.532Z,24.20
2022-08-17T19:45:35.994Z,24.10
2022-08-17T19:48:20.698Z,24.00
2022-08-17T19:50:57.915Z,24.00
2022-08-17T19:54:01.746Z,23.90
2022-08-17T19:56:38.893Z,23.70
2022-08-17T19:59:17.677Z,23.50
2022-08-17T20:01:51.042Z,23.40
2022-08-17T20:04:35.570Z,23.30
2022-08-17T20:07:08.746Z,23.20
2022-08-17T20:09:44.780Z,23.30
2022-08-17T20:12:19.005Z,23.30
2022-08-17T20:14:57.282Z,23.10
2022-08-17T20:17:30.595Z,23.00
2022-08-17T20:20:08.089Z,22.90
2022-08-17T20:22:56.745Z,22.80
2022-08-17T20:25:36.665Z,22.90
2022-08-17T20:28:18.354Z,22.70
2022-08-17T20:30:47.693Z,22.70
2022-08-17T20:33:27.494Z,22.70
2022-08-17T20:36:14.126Z,22.60
2022-08-17T20:38:46.921Z,22.40
2022-08-17T20:41:22.482Z,22.30
2022-08-17T20:44:06.859Z,22.20
2022-08-17T20:46:53.858Z,22.20
2022-08-17T20:49:28.785Z,22.10
2022-08-17T20:52:02.902Z,22.10
2022-08-17T20:54:49.761Z,22.10
2022-08-17T20:57:49.442Z,22.10
2022-08-17T21:00:46.019Z,22.10
2022-08-17T21:03:50.944Z,22.20
2022-08-17T21:06:26.082Z,22.20
2022-08-17T21:08:59.345Z,22.40
2022-08-17T21:12:04.100Z,22.40
2022-08-17T21:15:01.442Z,22.40
2022-08-17T21:17:44.809Z,22.50
2022-08-17T21:20:33.255Z,22.60
2022-08-17T21:23:30.568Z,22.60
2022-08-17T21:26:29.605Z,22.70
2022-08-17T21:29:29.719Z,22.80
2022-08-17T21:32:24.622Z,22.80
2022-08-17T21:35:27.179Z,22.90
2022-08-17T21:38:03.530Z,23.00
2022-08-17T21:40:34.651Z,23.10
2022-08-17T21:43:23.541Z,23.10
2022-08-17T21:46:04.022Z,23.10
2022-08-17T21:48:43.699Z,23.20
2022-08-17T21:51:24.228Z,23.20
2022-08-17T21:53:56.803Z,23.30
2022-08-17T21:56:29.620Z,23.40
2022-08-17T21:59:01.769Z,23.30
2022-08-17T22:01:34.842Z,23.30
2022-08-17T22:04:11.722Z,23.30
2022-08-17T22:06:43.104Z,23.30
2022-08-17T22:09:28.566Z,23.20
2022-08-17T22:12:06.284Z,23.20
2022-08-17T22:14:52.217Z,23.20
2022-08-17T22:17:26.024Z,23.10
2022-08-17T22:20:01.442Z,23.00
2022-08-17T22:22:58.706Z,23.20
2022-08-17T22:25:28.002Z,23.10
2022-08-17T22:28:01.398Z,23.10
2022-08-17T22:30:36.777Z,23.10
2022-08-17T22:33:39.691Z,23.10
2022-08-17T22:36:31.437Z,23.00
2022-08-17T22:39:01.901Z,23.00
2022-08-17T22:41:44.355Z,22.90
2022-08-17T22:44:27.459Z,23.00
2022-08-17T22:47:03.728Z,23.00
2022-08-17T22:49:53.969Z,23.00
2022-08-17T22:52:57.474Z,23.00
2022-08-17T22:55:55.962Z,22.90
2022-08-17T22:58:43.789Z,22.90
2022-08-17T23:01:31.423Z,22.80
2022-08-17T23:04:02.536Z,22.90
2022-08-17T23:06:33.736Z,22.80
2022-08-17T23:09:06.408Z,22.90
2022-08-17T23:11:48.907Z,22.80
2022-08-17T23:14:21.188Z,22.80
2022-08-17T23:16:51.187Z,22.80
2022-08-17T23:19:22.571Z,22.60
2022-08-17T23:21:55.320Z,22.60
2022-08-17T23:24:29.188Z,22.70
2022-08-17T23:27:10.684Z,22.60
2022-08-17T23:29:42.048Z,22.50
2022-08-17T23:32:15.966Z,22.50
2022-08-17T23:34:47.727Z,22.50
2022-08-17T23:37:20.352Z,22.50
2022-08-17T23:39:49.994Z,22.50
2022-08-17T23:42:24.058Z,22.40
2022-08-17T23:44:52.114Z,22.50
2022-08-17T23:47:21.025Z,22.50
2022-08-17T23:49:49.155Z,22.50
2022-08-17T23:52:22.663Z,22.50
2022-08-17T23:54:52.667Z,22.50
2022-08-17T23:57:33.433Z,22.50
